Аэропорт: Гумрак. Волгоград

ICAO: URWW

METAR:
2018/11/21 18:30
URWW 211830Z 28004MPS 9999 BKN047 M04/M07 Q1016 R24/010070 NOSIG
METAR:
2015/12/24 15:15
TAF COR TAF COR URWW 241510Z 2415/2524 30013G18MPS 9999 BKN007 SCT020CB BKN100 
      TEMPO 2415/2421 27008G13MPS 2100 -SHRA BR